sensor_id;sensor_type;location;lat;lon;timestamp;P1;durP1;ratioP1;P2;durP2;ratioP2
2562;SDS011;1291;51.420;6.970;2022-08-25T00:01:12;3.08;;;2.60;;
2562;SDS011;1291;51.420;6.970;2022-08-25T00:03:40;3.90;;;2.72;;
2562;SDS011;1291;51.420;6.970;2022-08-25T00:06:07;5.93;;;2.75;;
2562;SDS011;1291;51.420;6.970;2022-08-25T00:08:33;3.25;;;2.63;;
2562;SDS011;1291;51.420;6.970;2022-08-25T00:11:02;10.43;;;3.38;;
2562;SDS011;1291;51.420;6.970;2022-08-25T00:13:29;2.90;;;2.60;;
2562;SDS011;1291;51.420;6.970;2022-08-25T00:15:55;3.63;;;2.65;;
2562;SDS011;1291;51.420;6.970;2022-08-25T00:18:21;4.80;;;2.38;;
2562;SDS011;1291;51.420;6.970;2022-08-25T00:20:47;5.30;;;2.80;;
2562;SDS011;1291;51.420;6.970;2022-08-25T00:23:13;3.45;;;2.50;;
2562;SDS011;1291;51.420;6.970;2022-08-25T00:25:38;2.58;;;2.38;;
2562;SDS011;1291;51.420;6.970;2022-08-25T00:28:04;3.08;;;2.20;;
2562;SDS011;1291;51.420;6.970;2022-08-25T00:30:29;5.47;;;2.80;;
2562;SDS011;1291;51.420;6.970;2022-08-25T00:32:55;5.25;;;2.70;;
2562;SDS011;1291;51.420;6.970;2022-08-25T00:35:20;4.90;;;2.33;;
2562;SDS011;1291;51.420;6.970;2022-08-25T00:37:47;4.72;;;2.47;;
2562;SDS011;1291;51.420;6.970;2022-08-25T00:40:13;3.35;;;2.50;;
2562;SDS011;1291;51.420;6.970;2022-08-25T00:42:38;4.38;;;2.35;;
2562;SDS011;1291;51.420;6.970;2022-08-25T00:45:06;3.25;;;2.63;;
2562;SDS011;1291;51.420;6.970;2022-08-25T00:47:32;9.80;;;3.15;;
2562;SDS011;1291;51.420;6.970;2022-08-25T00:49:58;4.15;;;2.55;;
2562;SDS011;1291;51.420;6.970;2022-08-25T00:52:51;2.95;;;2.40;;
2562;SDS011;1291;51.420;6.970;2022-08-25T00:57:46;4.95;;;2.53;;
2562;SDS011;1291;51.420;6.970;2022-08-25T01:00:17;4.15;;;2.40;;
2562;SDS011;1291;51.420;6.970;2022-08-25T01:02:47;2.35;;;2.15;;
2562;SDS011;1291;51.420;6.970;2022-08-25T01:05:13;4.25;;;2.53;;
2562;SDS011;1291;51.420;6.970;2022-08-25T01:07:38;2.53;;;2.33;;
2562;SDS011;1291;51.420;6.970;2022-08-25T01:10:07;3.63;;;2.58;;
2562;SDS011;1291;51.420;6.970;2022-08-25T01:12:37;4.93;;;2.60;;
2562;SDS011;1291;51.420;6.970;2022-08-25T01:15:04;5.13;;;2.42;;
2562;SDS011;1291;51.420;6.970;2022-08-25T01:17:32;6.82;;;2.53;;
2562;SDS011;1291;51.420;6.970;2022-08-25T01:20:03;3.90;;;2.22;;
2562;SDS011;1291;51.420;6.970;2022-08-25T01:22:29;2.58;;;2.38;;
2562;SDS011;1291;51.420;6.970;2022-08-25T01:24:56;4.22;;;2.53;;
2562;SDS011;1291;51.420;6.970;2022-08-25T01:27:25;4.38;;;2.30;;
2562;SDS011;1291;51.420;6.970;2022-08-25T01:29:50;6.38;;;2.50;;
2562;SDS011;1291;51.420;6.970;2022-08-25T01:32:16;3.83;;;2.50;;
2562;SDS011;1291;51.420;6.970;2022-08-25T01:34:43;2.50;;;2.30;;
2562;SDS011;1291;51.420;6.970;2022-08-25T01:37:10;5.80;;;2.60;;
2562;SDS011;1291;51.420;6.970;2022-08-25T01:39:38;5.95;;;2.33;;
2562;SDS011;1291;51.420;6.970;2022-08-25T01:42:13;2.33;;;2.15;;
2562;SDS011;1291;51.420;6.970;2022-08-25T01:44:56;4.43;;;2.55;;
2562;SDS011;1291;51.420;6.970;2022-08-25T01:47:22;2.92;;;2.15;;
2562;SDS011;1291;51.420;6.970;2022-08-25T01:49:48;3.10;;;2.25;;
2562;SDS011;1291;51.420;6.970;2022-08-25T01:52:24;4.30;;;2.55;;
2562;SDS011;1291;51.420;6.970;2022-08-25T01:54:55;4.03;;;2.30;;
2562;SDS011;1291;51.420;6.970;2022-08-25T01:57:21;6.03;;;2.58;;
2562;SDS011;1291;51.420;6.970;2022-08-25T01:59:46;3.88;;;2.00;;
2562;SDS011;1291;51.420;6.970;2022-08-25T02:02:12;3.28;;;2.30;;
2562;SDS011;1291;51.420;6.970;2022-08-25T02:04:37;4.78;;;2.50;;
2562;SDS011;1291;51.420;6.970;2022-08-25T02:07:05;5.18;;;2.15;;
2562;SDS011;1291;51.420;6.970;2022-08-25T02:09:32;4.10;;;2.20;;
2562;SDS011;1291;51.420;6.970;2022-08-25T02:11:58;2.60;;;2.30;;
2562;SDS011;1291;51.420;6.970;2022-08-25T02:14:24;4.22;;;2.65;;
2562;SDS011;1291;51.420;6.970;2022-08-25T02:16:51;2.65;;;2.45;;
2562;SDS011;1291;51.420;6.970;2022-08-25T02:19:17;2.90;;;2.40;;
2562;SDS011;1291;51.420;6.970;2022-08-25T02:21:45;2.60;;;2.40;;
2562;SDS011;1291;51.420;6.970;2022-08-25T02:24:10;4.35;;;2.60;;
2562;SDS011;1291;51.420;6.970;2022-08-25T02:26:37;2.40;;;2.20;;
2562;SDS011;1291;51.420;6.970;2022-08-25T02:29:04;4.40;;;2.33;;
2562;SDS011;1291;51.420;6.970;2022-08-25T02:31:30;3.65;;;2.28;;
2562;SDS011;1291;51.420;6.970;2022-08-25T02:33:56;3.28;;;2.65;;
2562;SDS011;1291;51.420;6.970;2022-08-25T02:36:21;3.75;;;2.75;;
2562;SDS011;1291;51.420;6.970;2022-08-25T02:38:48;6.40;;;2.80;;
2562;SDS011;1291;51.420;6.970;2022-08-25T02:41:15;4.82;;;2.40;;
2562;SDS011;1291;51.420;6.970;2022-08-25T02:43:43;4.45;;;2.53;;
2562;SDS011;1291;51.420;6.970;2022-08-25T02:46:09;3.00;;;2.78;;
2562;SDS011;1291;51.420;6.970;2022-08-25T02:48:36;5.80;;;2.85;;
2562;SDS011;1291;51.420;6.970;2022-08-25T02:51:03;2.88;;;2.60;;
2562;SDS011;1291;51.420;6.970;2022-08-25T02:53:30;3.67;;;2.70;;
2562;SDS011;1291;51.420;6.970;2022-08-25T02:55:58;4.63;;;2.92;;
2562;SDS011;1291;51.420;6.970;2022-08-25T02:58:24;3.05;;;2.72;;
2562;SDS011;1291;51.420;6.970;2022-08-25T03:00:50;4.85;;;2.65;;
2562;SDS011;1291;51.420;6.970;2022-08-25T03:03:17;3.60;;;3.00;;
2562;SDS011;1291;51.420;6.970;2022-08-25T03:05:43;5.00;;;2.80;;
2562;SDS011;1291;51.420;6.970;2022-08-25T03:08:09;5.28;;;2.80;;
2562;SDS011;1291;51.420;6.970;2022-08-25T03:10:35;2.83;;;2.58;;
2562;SDS011;1291;51.420;6.970;2022-08-25T03:13:00;4.78;;;3.40;;
2562;SDS011;1291;51.420;6.970;2022-08-25T03:15:26;3.20;;;2.50;;
2562;SDS011;1291;51.420;6.970;2022-08-25T03:17:52;4.38;;;2.70;;
2562;SDS011;1291;51.420;6.970;2022-08-25T03:20:19;2.80;;;2.50;;
2562;SDS011;1291;51.420;6.970;2022-08-25T03:22:47;2.67;;;2.42;;
2562;SDS011;1291;51.420;6.970;2022-08-25T03:25:13;5.85;;;3.05;;
2562;SDS011;1291;51.420;6.970;2022-08-25T03:28:01;3.53;;;2.70;;
2562;SDS011;1291;51.420;6.970;2022-08-25T03:30:28;3.70;;;2.90;;
2562;SDS011;1291;51.420;6.970;2022-08-25T03:32:54;4.63;;;3.15;;
2562;SDS011;1291;51.420;6.970;2022-08-25T03:35:23;3.33;;;3.00;;
2562;SDS011;1291;51.420;6.970;2022-08-25T03:37:48;4.63;;;3.35;;
2562;SDS011;1291;51.420;6.970;2022-08-25T03:40:15;4.53;;;3.72;;
2562;SDS011;1291;51.420;6.970;2022-08-25T03:42:42;4.53;;;3.45;;
2562;SDS011;1291;51.420;6.970;2022-08-25T03:45:11;3.92;;;3.53;;
2562;SDS011;1291;51.420;6.970;2022-08-25T03:47:38;5.80;;;3.58;;
2562;SDS011;1291;51.420;6.970;2022-08-25T03:50:05;6.63;;;3.53;;
2562;SDS011;1291;51.420;6.970;2022-08-25T03:52:35;4.72;;;3.40;;
2562;SDS011;1291;51.420;6.970;2022-08-25T03:55:03;6.43;;;3.83;;
2562;SDS011;1291;51.420;6.970;2022-08-25T03:57:33;4.22;;;3.60;;
2562;SDS011;1291;51.420;6.970;2022-08-25T03:59:59;5.43;;;4.18;;
2562;SDS011;1291;51.420;6.970;2022-08-25T04:02:25;5.57;;;3.67;;
2562;SDS011;1291;51.420;6.970;2022-08-25T04:04:51;10.05;;;3.80;;
2562;SDS011;1291;51.420;6.970;2022-08-25T04:07:16;4.38;;;3.88;;
2562;SDS011;1291;51.420;6.970;2022-08-25T04:09:42;4.13;;;3.55;;
2562;SDS011;1291;51.420;6.970;2022-08-25T04:12:08;4.00;;;3.60;;
2562;SDS011;1291;51.420;6.970;2022-08-25T04:14:33;4.40;;;3.60;;
2562;SDS011;1291;51.420;6.970;2022-08-25T04:16:59;4.28;;;3.45;;
2562;SDS011;1291;51.420;6.970;2022-08-25T04:19:25;6.25;;;3.65;;
2562;SDS011;1291;51.420;6.970;2022-08-25T04:21:51;5.07;;;3.85;;
2562;SDS011;1291;51.420;6.970;2022-08-25T04:24:16;4.95;;;3.70;;
2562;SDS011;1291;51.420;6.970;2022-08-25T04:26:46;4.88;;;3.50;;
2562;SDS011;1291;51.420;6.970;2022-08-25T04:29:15;5.65;;;3.88;;
2562;SDS011;1291;51.420;6.970;2022-08-25T04:31:45;4.65;;;3.60;;
2562;SDS011;1291;51.420;6.970;2022-08-25T04:34:13;5.97;;;3.50;;
2562;SDS011;1291;51.420;6.970;2022-08-25T04:36:39;6.47;;;3.80;;
2562;SDS011;1291;51.420;6.970;2022-08-25T04:39:05;3.72;;;3.15;;
2562;SDS011;1291;51.420;6.970;2022-08-25T04:41:31;3.58;;;3.25;;
2562;SDS011;1291;51.420;6.970;2022-08-25T04:43:57;5.93;;;3.50;;
2562;SDS011;1291;51.420;6.970;2022-08-25T04:46:25;7.38;;;4.57;;
2562;SDS011;1291;51.420;6.970;2022-08-25T04:48:53;4.53;;;3.80;;
2562;SDS011;1291;51.420;6.970;2022-08-25T04:51:28;3.88;;;3.47;;
2562;SDS011;1291;51.420;6.970;2022-08-25T04:53:57;4.22;;;3.83;;
2562;SDS011;1291;51.420;6.970;2022-08-25T04:56:25;6.88;;;4.20;;
2562;SDS011;1291;51.420;6.970;2022-08-25T04:58:51;4.60;;;3.90;;
2562;SDS011;1291;51.420;6.970;2022-08-25T05:01:19;7.05;;;3.78;;
2562;SDS011;1291;51.420;6.970;2022-08-25T05:03:50;4.40;;;3.63;;
2562;SDS011;1291;51.420;6.970;2022-08-25T05:06:18;5.18;;;3.90;;
2562;SDS011;1291;51.420;6.970;2022-08-25T05:08:43;5.53;;;4.03;;
2562;SDS011;1291;51.420;6.970;2022-08-25T05:11:10;4.60;;;3.55;;
2562;SDS011;1291;51.420;6.970;2022-08-25T05:13:38;4.85;;;3.97;;
2562;SDS011;1291;51.420;6.970;2022-08-25T05:16:04;4.65;;;3.85;;
2562;SDS011;1291;51.420;6.970;2022-08-25T05:18:31;5.45;;;3.95;;
2562;SDS011;1291;51.420;6.970;2022-08-25T05:21:04;6.25;;;3.92;;
2562;SDS011;1291;51.420;6.970;2022-08-25T05:23:40;5.50;;;4.35;;
2562;SDS011;1291;51.420;6.970;2022-08-25T05:26:10;8.45;;;4.30;;
2562;SDS011;1291;51.420;6.970;2022-08-25T05:28:41;5.65;;;3.78;;
2562;SDS011;1291;51.420;6.970;2022-08-25T05:31:08;5.32;;;3.95;;
2562;SDS011;1291;51.420;6.970;2022-08-25T05:33:36;6.20;;;4.25;;
2562;SDS011;1291;51.420;6.970;2022-08-25T05:36:03;6.47;;;4.60;;
2562;SDS011;1291;51.420;6.970;2022-08-25T05:38:29;5.95;;;4.50;;
2562;SDS011;1291;51.420;6.970;2022-08-25T05:40:58;5.38;;;4.35;;
2562;SDS011;1291;51.420;6.970;2022-08-25T05:43:25;6.47;;;4.72;;
2562;SDS011;1291;51.420;6.970;2022-08-25T05:45:55;8.50;;;4.95;;
2562;SDS011;1291;51.420;6.970;2022-08-25T05:48:21;7.80;;;4.53;;
2562;SDS011;1291;51.420;6.970;2022-08-25T05:50:51;10.63;;;4.68;;
2562;SDS011;1291;51.420;6.970;2022-08-25T05:53:18;6.00;;;4.65;;
2562;SDS011;1291;51.420;6.970;2022-08-25T05:55:44;8.48;;;4.50;;
2562;SDS011;1291;51.420;6.970;2022-08-25T05:58:10;6.45;;;4.60;;
2562;SDS011;1291;51.420;6.970;2022-08-25T06:00:36;29.20;;;5.50;;
2562;SDS011;1291;51.420;6.970;2022-08-25T06:03:02;5.60;;;4.38;;
2562;SDS011;1291;51.420;6.970;2022-08-25T06:05:28;7.03;;;4.60;;
2562;SDS011;1291;51.420;6.970;2022-08-25T06:07:54;10.75;;;5.35;;
2562;SDS011;1291;51.420;6.970;2022-08-25T06:10:19;11.43;;;5.32;;
2562;SDS011;1291;51.420;6.970;2022-08-25T06:12:46;7.43;;;5.05;;
2562;SDS011;1291;51.420;6.970;2022-08-25T06:15:13;7.65;;;4.80;;
2562;SDS011;1291;51.420;6.970;2022-08-25T06:17:40;8.30;;;5.20;;
2562;SDS011;1291;51.420;6.970;2022-08-25T06:20:16;6.40;;;5.00;;
2562;SDS011;1291;51.420;6.970;2022-08-25T06:22:45;5.40;;;4.53;;
2562;SDS011;1291;51.420;6.970;2022-08-25T06:25:12;7.03;;;5.15;;
2562;SDS011;1291;51.420;6.970;2022-08-25T06:27:42;9.40;;;4.88;;
2562;SDS011;1291;51.420;6.970;2022-08-25T06:30:08;7.40;;;4.63;;
2562;SDS011;1291;51.420;6.970;2022-08-25T06:32:37;7.05;;;4.57;;
2562;SDS011;1291;51.420;6.970;2022-08-25T06:35:05;8.85;;;4.63;;
2562;SDS011;1291;51.420;6.970;2022-08-25T06:37:32;8.90;;;5.70;;
2562;SDS011;1291;51.420;6.970;2022-08-25T06:39:58;6.35;;;4.53;;
2562;SDS011;1291;51.420;6.970;2022-08-25T06:42:24;7.00;;;5.60;;
2562;SDS011;1291;51.420;6.970;2022-08-25T06:44:49;7.32;;;4.47;;
2562;SDS011;1291;51.420;6.970;2022-08-25T06:47:15;9.30;;;5.57;;
2562;SDS011;1291;51.420;6.970;2022-08-25T06:49:42;11.77;;;4.93;;
2562;SDS011;1291;51.420;6.970;2022-08-25T06:52:08;6.65;;;4.82;;
2562;SDS011;1291;51.420;6.970;2022-08-25T06:54:34;7.45;;;4.60;;
2562;SDS011;1291;51.420;6.970;2022-08-25T06:57:00;8.10;;;4.50;;
2562;SDS011;1291;51.420;6.970;2022-08-25T06:59:26;6.72;;;4.68;;
2562;SDS011;1291;51.420;6.970;2022-08-25T07:01:51;8.52;;;4.57;;
2562;SDS011;1291;51.420;6.970;2022-08-25T07:04:17;5.68;;;4.57;;
2562;SDS011;1291;51.420;6.970;2022-08-25T07:06:43;4.88;;;4.32;;
2562;SDS011;1291;51.420;6.970;2022-08-25T07:09:09;6.13;;;4.78;;
2562;SDS011;1291;51.420;6.970;2022-08-25T07:11:41;8.13;;;5.07;;
2562;SDS011;1291;51.420;6.970;2022-08-25T07:14:09;7.32;;;4.93;;
2562;SDS011;1291;51.420;6.970;2022-08-25T07:16:36;8.35;;;4.05;;
2562;SDS011;1291;51.420;6.970;2022-08-25T07:19:02;5.45;;;4.60;;
2562;SDS011;1291;51.420;6.970;2022-08-25T07:21:32;6.15;;;4.70;;
2562;SDS011;1291;51.420;6.970;2022-08-25T07:23:59;9.32;;;4.95;;
2562;SDS011;1291;51.420;6.970;2022-08-25T07:26:29;7.32;;;4.63;;
2562;SDS011;1291;51.420;6.970;2022-08-25T07:28:56;6.30;;;4.63;;
2562;SDS011;1291;51.420;6.970;2022-08-25T07:31:23;10.50;;;4.38;;
2562;SDS011;1291;51.420;6.970;2022-08-25T07:33:52;7.28;;;4.75;;
2562;SDS011;1291;51.420;6.970;2022-08-25T07:36:36;7.03;;;4.45;;
2562;SDS011;1291;51.420;6.970;2022-08-25T07:39:04;6.57;;;4.65;;
2562;SDS011;1291;51.420;6.970;2022-08-25T07:41:31;10.82;;;5.10;;
2562;SDS011;1291;51.420;6.970;2022-08-25T07:44:00;11.75;;;4.55;;
2562;SDS011;1291;51.420;6.970;2022-08-25T07:46:25;7.95;;;4.30;;
2562;SDS011;1291;51.420;6.970;2022-08-25T07:48:51;7.72;;;4.38;;
2562;SDS011;1291;51.420;6.970;2022-08-25T07:51:16;4.75;;;4.20;;
2562;SDS011;1291;51.420;6.970;2022-08-25T07:53:42;8.10;;;4.60;;
2562;SDS011;1291;51.420;6.970;2022-08-25T07:56:11;6.47;;;4.47;;
2562;SDS011;1291;51.420;6.970;2022-08-25T07:58:39;5.85;;;4.63;;
2562;SDS011;1291;51.420;6.970;2022-08-25T08:01:05;7.85;;;4.90;;
2562;SDS011;1291;51.420;6.970;2022-08-25T08:03:31;5.60;;;4.53;;
2562;SDS011;1291;51.420;6.970;2022-08-25T08:06:07;6.47;;;4.50;;
2562;SDS011;1291;51.420;6.970;2022-08-25T08:08:38;5.68;;;4.75;;
2562;SDS011;1291;51.420;6.970;2022-08-25T08:11:12;6.63;;;4.47;;
2562;SDS011;1291;51.420;6.970;2022-08-25T08:13:58;6.53;;;4.57;;
2562;SDS011;1291;51.420;6.970;2022-08-25T08:16:26;7.88;;;4.57;;
2562;SDS011;1291;51.420;6.970;2022-08-25T08:18:53;7.43;;;4.32;;
2562;SDS011;1291;51.420;6.970;2022-08-25T08:21:21;10.27;;;4.63;;
2562;SDS011;1291;51.420;6.970;2022-08-25T08:23:50;6.35;;;4.75;;
2562;SDS011;1291;51.420;6.970;2022-08-25T08:26:18;8.40;;;4.68;;
2562;SDS011;1291;51.420;6.970;2022-08-25T08:28:43;5.60;;;4.45;;
2562;SDS011;1291;51.420;6.970;2022-08-25T08:31:09;6.53;;;4.10;;
2562;SDS011;1291;51.420;6.970;2022-08-25T08:33:35;5.97;;;4.38;;
2562;SDS011;1291;51.420;6.970;2022-08-25T08:36:02;6.88;;;4.63;;
2562;SDS011;1291;51.420;6.970;2022-08-25T08:38:35;6.97;;;4.40;;
2562;SDS011;1291;51.420;6.970;2022-08-25T08:41:05;8.40;;;4.47;;
2562;SDS011;1291;51.420;6.970;2022-08-25T08:50:01;5.07;;;4.10;;
2562;SDS011;1291;51.420;6.970;2022-08-25T08:55:50;5.25;;;4.07;;
2562;SDS011;1291;51.420;6.970;2022-08-25T08:58:20;8.43;;;4.13;;
2562;SDS011;1291;51.420;6.970;2022-08-25T09:01:06;5.22;;;4.28;;
2562;SDS011;1291;51.420;6.970;2022-08-25T09:04:09;5.47;;;3.60;;
2562;SDS011;1291;51.420;6.970;2022-08-25T09:06:37;5.43;;;4.30;;
2562;SDS011;1291;51.420;6.970;2022-08-25T09:09:10;4.97;;;4.53;;
2562;SDS011;1291;51.420;6.970;2022-08-25T09:20:28;6.47;;;4.10;;
2562;SDS011;1291;51.420;6.970;2022-08-25T09:28:51;8.25;;;4.63;;
2562;SDS011;1291;51.420;6.970;2022-08-25T09:31:26;5.00;;;4.40;;
2562;SDS011;1291;51.420;6.970;2022-08-25T09:34:01;5.82;;;4.38;;
2562;SDS011;1291;51.420;6.970;2022-08-25T09:36:29;5.10;;;4.60;;
2562;SDS011;1291;51.420;6.970;2022-08-25T09:38:56;5.95;;;4.95;;
2562;SDS011;1291;51.420;6.970;2022-08-25T09:41:42;7.03;;;4.32;;
2562;SDS011;1291;51.420;6.970;2022-08-25T09:44:15;8.23;;;4.63;;
2562;SDS011;1291;51.420;6.970;2022-08-25T09:49:30;5.82;;;5.20;;
2562;SDS011;1291;51.420;6.970;2022-08-25T09:54:52;6.55;;;4.70;;
2562;SDS011;1291;51.420;6.970;2022-08-25T09:57:26;8.27;;;4.93;;
2562;SDS011;1291;51.420;6.970;2022-08-25T09:59:53;6.93;;;4.55;;
2562;SDS011;1291;51.420;6.970;2022-08-25T10:04:49;6.72;;;4.40;;
2562;SDS011;1291;51.420;6.970;2022-08-25T10:07:29;5.22;;;4.15;;
2562;SDS011;1291;51.420;6.970;2022-08-25T10:10:05;9.43;;;4.75;;
2562;SDS011;1291;51.420;6.970;2022-08-25T10:12:43;7.18;;;5.10;;
2562;SDS011;1291;51.420;6.970;2022-08-25T10:15:15;7.70;;;4.45;;
2562;SDS011;1291;51.420;6.970;2022-08-25T10:17:45;6.85;;;4.75;;
2562;SDS011;1291;51.420;6.970;2022-08-25T10:22:44;7.70;;;4.50;;
2562;SDS011;1291;51.420;6.970;2022-08-25T10:25:13;4.88;;;4.22;;
2562;SDS011;1291;51.420;6.970;2022-08-25T10:39:00;5.90;;;4.50;;
2562;SDS011;1291;51.420;6.970;2022-08-25T10:41:33;9.45;;;4.82;;
2562;SDS011;1291;51.420;6.970;2022-08-25T10:52:59;5.95;;;4.50;;
2562;SDS011;1291;51.420;6.970;2022-08-25T11:06:24;8.23;;;4.60;;
2562;SDS011;1291;51.420;6.970;2022-08-25T11:09:14;8.35;;;4.45;;
2562;SDS011;1291;51.420;6.970;2022-08-25T11:11:51;4.25;;;3.85;;
2562;SDS011;1291;51.420;6.970;2022-08-25T11:19:42;4.20;;;3.78;;
2562;SDS011;1291;51.420;6.970;2022-08-25T11:25:06;4.90;;;3.60;;
2562;SDS011;1291;51.420;6.970;2022-08-25T11:30:27;4.82;;;4.20;;
2562;SDS011;1291;51.420;6.970;2022-08-25T11:32:56;4.28;;;3.97;;
2562;SDS011;1291;51.420;6.970;2022-08-25T11:35:36;5.88;;;3.95;;
2562;SDS011;1291;51.420;6.970;2022-08-25T11:49:25;4.93;;;4.38;;
2562;SDS011;1291;51.420;6.970;2022-08-25T11:52:04;4.47;;;3.90;;
2562;SDS011;1291;51.420;6.970;2022-08-25T11:54:36;4.43;;;4.00;;
2562;SDS011;1291;51.420;6.970;2022-08-25T12:02:38;5.68;;;3.88;;
2562;SDS011;1291;51.420;6.970;2022-08-25T12:10:21;5.78;;;3.97;;
2562;SDS011;1291;51.420;6.970;2022-08-25T12:26:01;5.55;;;3.55;;
2562;SDS011;1291;51.420;6.970;2022-08-25T12:28:35;4.15;;;3.75;;
2562;SDS011;1291;51.420;6.970;2022-08-25T12:31:16;7.30;;;3.53;;
2562;SDS011;1291;51.420;6.970;2022-08-25T12:36:33;4.03;;;3.45;;
2562;SDS011;1291;51.420;6.970;2022-08-25T12:41:56;3.75;;;3.45;;
2562;SDS011;1291;51.420;6.970;2022-08-25T12:47:24;4.32;;;3.38;;
2562;SDS011;1291;51.420;6.970;2022-08-25T12:50:23;5.00;;;3.40;;
2562;SDS011;1291;51.420;6.970;2022-08-25T12:53:00;6.57;;;3.88;;
2562;SDS011;1291;51.420;6.970;2022-08-25T12:55:35;3.75;;;3.45;;
2562;SDS011;1291;51.420;6.970;2022-08-25T12:58:03;4.40;;;3.67;;
2562;SDS011;1291;51.420;6.970;2022-08-25T13:00:36;6.93;;;3.85;;
2562;SDS011;1291;51.420;6.970;2022-08-25T13:03:25;4.32;;;3.42;;
2562;SDS011;1291;51.420;6.970;2022-08-25T13:11:43;3.67;;;3.38;;
2562;SDS011;1291;51.420;6.970;2022-08-25T13:14:20;3.60;;;3.30;;
2562;SDS011;1291;51.420;6.970;2022-08-25T13:16:57;4.32;;;3.45;;
2562;SDS011;1291;51.420;6.970;2022-08-25T13:19:23;4.13;;;3.40;;
2562;SDS011;1291;51.420;6.970;2022-08-25T13:21:50;4.00;;;3.50;;
2562;SDS011;1291;51.420;6.970;2022-08-25T13:24:21;5.15;;;3.00;;
2562;SDS011;1291;51.420;6.970;2022-08-25T13:26:58;4.65;;;3.22;;
2562;SDS011;1291;51.420;6.970;2022-08-25T13:29:35;4.07;;;3.47;;
2562;SDS011;1291;51.420;6.970;2022-08-25T13:32:28;3.70;;;3.30;;
2562;SDS011;1291;51.420;6.970;2022-08-25T13:35:10;7.38;;;3.20;;
2562;SDS011;1291;51.420;6.970;2022-08-25T13:37:39;4.40;;;3.63;;
2562;SDS011;1291;51.420;6.970;2022-08-25T13:43:04;4.15;;;3.60;;
2562;SDS011;1291;51.420;6.970;2022-08-25T13:45:43;3.38;;;3.08;;
2562;SDS011;1291;51.420;6.970;2022-08-25T13:48:10;4.15;;;3.42;;
2562;SDS011;1291;51.420;6.970;2022-08-25T13:50:41;6.00;;;4.05;;
2562;SDS011;1291;51.420;6.970;2022-08-25T13:55:49;4.95;;;2.88;;
2562;SDS011;1291;51.420;6.970;2022-08-25T13:58:18;3.85;;;3.33;;
2562;SDS011;1291;51.420;6.970;2022-08-25T14:00:47;5.13;;;3.67;;
2562;SDS011;1291;51.420;6.970;2022-08-25T14:03:33;3.63;;;3.20;;
2562;SDS011;1291;51.420;6.970;2022-08-25T14:08:46;3.80;;;3.45;;
2562;SDS011;1291;51.420;6.970;2022-08-25T14:11:14;8.18;;;3.40;;
2562;SDS011;1291;51.420;6.970;2022-08-25T14:14:09;6.38;;;3.45;;
2562;SDS011;1291;51.420;6.970;2022-08-25T14:16:39;4.80;;;3.22;;
2562;SDS011;1291;51.420;6.970;2022-08-25T14:19:20;4.22;;;3.38;;
2562;SDS011;1291;51.420;6.970;2022-08-25T14:21:47;3.40;;;3.10;;
2562;SDS011;1291;51.420;6.970;2022-08-25T14:24:15;10.63;;;3.38;;
2562;SDS011;1291;51.420;6.970;2022-08-25T14:26:42;5.00;;;3.08;;
2562;SDS011;1291;51.420;6.970;2022-08-25T14:29:09;5.05;;;3.38;;
2562;SDS011;1291;51.420;6.970;2022-08-25T14:31:36;3.72;;;3.35;;
2562;SDS011;1291;51.420;6.970;2022-08-25T14:34:09;5.28;;;3.75;;
2562;SDS011;1291;51.420;6.970;2022-08-25T14:36:37;4.50;;;3.25;;
2562;SDS011;1291;51.420;6.970;2022-08-25T14:39:06;6.13;;;3.88;;
2562;SDS011;1291;51.420;6.970;2022-08-25T14:41:33;4.10;;;3.70;;
2562;SDS011;1291;51.420;6.970;2022-08-25T14:44:00;3.80;;;3.50;;
2562;SDS011;1291;51.420;6.970;2022-08-25T14:46:28;3.88;;;3.58;;
2562;SDS011;1291;51.420;6.970;2022-08-25T14:49:00;3.60;;;3.30;;
2562;SDS011;1291;51.420;6.970;2022-08-25T14:51:29;4.47;;;3.67;;
2562;SDS011;1291;51.420;6.970;2022-08-25T14:53:58;6.32;;;3.80;;
2562;SDS011;1291;51.420;6.970;2022-08-25T14:56:26;4.07;;;3.78;;
2562;SDS011;1291;51.420;6.970;2022-08-25T14:58:52;4.38;;;3.67;;
2562;SDS011;1291;51.420;6.970;2022-08-25T15:01:18;5.70;;;3.65;;
2562;SDS011;1291;51.420;6.970;2022-08-25T15:03:45;4.50;;;3.35;;
2562;SDS011;1291;51.420;6.970;2022-08-25T15:06:15;3.50;;;3.00;;
2562;SDS011;1291;51.420;6.970;2022-08-25T15:08:41;5.25;;;3.58;;
2562;SDS011;1291;51.420;6.970;2022-08-25T15:11:26;6.82;;;3.65;;
2562;SDS011;1291;51.420;6.970;2022-08-25T15:13:53;4.93;;;3.60;;
2562;SDS011;1291;51.420;6.970;2022-08-25T15:18:58;4.18;;;3.78;;
2562;SDS011;1291;51.420;6.970;2022-08-25T15:21:25;4.60;;;3.40;;
2562;SDS011;1291;51.420;6.970;2022-08-25T15:23:50;6.00;;;3.70;;
2562;SDS011;1291;51.420;6.970;2022-08-25T15:26:15;4.40;;;3.45;;
2562;SDS011;1291;51.420;6.970;2022-08-25T15:28:46;3.65;;;3.35;;
2562;SDS011;1291;51.420;6.970;2022-08-25T15:31:13;8.93;;;3.70;;
2562;SDS011;1291;51.420;6.970;2022-08-25T15:33:43;7.85;;;3.38;;
2562;SDS011;1291;51.420;6.970;2022-08-25T15:36:12;3.80;;;3.40;;
2562;SDS011;1291;51.420;6.970;2022-08-25T15:38:40;5.18;;;3.70;;
2562;SDS011;1291;51.420;6.970;2022-08-25T15:41:10;6.13;;;3.70;;
2562;SDS011;1291;51.420;6.970;2022-08-25T15:43:36;4.28;;;3.53;;
2562;SDS011;1291;51.420;6.970;2022-08-25T15:46:02;3.70;;;3.40;;
2562;SDS011;1291;51.420;6.970;2022-08-25T15:48:29;4.00;;;3.53;;
2562;SDS011;1291;51.420;6.970;2022-08-25T15:50:56;4.10;;;3.72;;
2562;SDS011;1291;51.420;6.970;2022-08-25T15:53:25;5.88;;;3.83;;
2562;SDS011;1291;51.420;6.970;2022-08-25T15:55:53;3.55;;;3.25;;
2562;SDS011;1291;51.420;6.970;2022-08-25T15:58:18;4.25;;;3.85;;
2562;SDS011;1291;51.420;6.970;2022-08-25T16:00:45;6.85;;;3.63;;
2562;SDS011;1291;51.420;6.970;2022-08-25T16:03:10;5.00;;;3.45;;
2562;SDS011;1291;51.420;6.970;2022-08-25T16:05:41;4.05;;;3.65;;
2562;SDS011;1291;51.420;6.970;2022-08-25T16:08:08;3.97;;;3.35;;
2562;SDS011;1291;51.420;6.970;2022-08-25T16:10:38;5.22;;;3.35;;
2562;SDS011;1291;51.420;6.970;2022-08-25T16:13:06;3.63;;;3.33;;
2562;SDS011;1291;51.420;6.970;2022-08-25T16:15:33;3.72;;;3.42;;
2562;SDS011;1291;51.420;6.970;2022-08-25T16:18:00;7.93;;;3.30;;
2562;SDS011;1291;51.420;6.970;2022-08-25T16:20:27;3.97;;;3.53;;
2562;SDS011;1291;51.420;6.970;2022-08-25T16:22:53;6.32;;;3.97;;
2562;SDS011;1291;51.420;6.970;2022-08-25T16:25:19;5.30;;;3.83;;
2562;SDS011;1291;51.420;6.970;2022-08-25T16:27:45;3.75;;;3.30;;
2562;SDS011;1291;51.420;6.970;2022-08-25T16:30:11;7.03;;;3.88;;
2562;SDS011;1291;51.420;6.970;2022-08-25T16:32:38;5.88;;;3.15;;
2562;SDS011;1291;51.420;6.970;2022-08-25T16:35:04;6.75;;;3.70;;
2562;SDS011;1291;51.420;6.970;2022-08-25T16:37:31;5.57;;;3.60;;
2562;SDS011;1291;51.420;6.970;2022-08-25T16:39:59;4.40;;;3.60;;
2562;SDS011;1291;51.420;6.970;2022-08-25T16:42:25;3.88;;;3.58;;
2562;SDS011;1291;51.420;6.970;2022-08-25T16:44:51;4.60;;;3.30;;
2562;SDS011;1291;51.420;6.970;2022-08-25T16:47:17;6.25;;;3.60;;
2562;SDS011;1291;51.420;6.970;2022-08-25T16:49:42;4.28;;;3.28;;
2562;SDS011;1291;51.420;6.970;2022-08-25T16:52:08;4.20;;;3.33;;
2562;SDS011;1291;51.420;6.970;2022-08-25T16:54:53;5.15;;;3.55;;
2562;SDS011;1291;51.420;6.970;2022-08-25T16:57:37;4.50;;;4.10;;
2562;SDS011;1291;51.420;6.970;2022-08-25T17:00:04;5.45;;;3.85;;
2562;SDS011;1291;51.420;6.970;2022-08-25T17:02:33;5.30;;;4.28;;
2562;SDS011;1291;51.420;6.970;2022-08-25T17:04:58;5.47;;;4.07;;
2562;SDS011;1291;51.420;6.970;2022-08-25T17:07:24;5.13;;;3.97;;
2562;SDS011;1291;51.420;6.970;2022-08-25T17:09:49;4.95;;;4.25;;
2562;SDS011;1291;51.420;6.970;2022-08-25T17:12:15;6.82;;;3.92;;
2562;SDS011;1291;51.420;6.970;2022-08-25T17:14:40;3.85;;;3.45;;
2562;SDS011;1291;51.420;6.970;2022-08-25T17:17:06;5.88;;;4.07;;
2562;SDS011;1291;51.420;6.970;2022-08-25T17:19:31;6.10;;;4.63;;
2562;SDS011;1291;51.420;6.970;2022-08-25T17:21:57;4.38;;;3.97;;
2562;SDS011;1291;51.420;6.970;2022-08-25T17:24:22;5.93;;;4.38;;
2562;SDS011;1291;51.420;6.970;2022-08-25T17:26:48;4.25;;;3.88;;
2562;SDS011;1291;51.420;6.970;2022-08-25T17:29:15;6.65;;;4.35;;
2562;SDS011;1291;51.420;6.970;2022-08-25T17:31:42;4.97;;;4.05;;
2562;SDS011;1291;51.420;6.970;2022-08-25T17:34:10;7.50;;;4.45;;
2562;SDS011;1291;51.420;6.970;2022-08-25T17:36:38;11.10;;;4.60;;
2562;SDS011;1291;51.420;6.970;2022-08-25T17:39:05;8.77;;;4.82;;
2562;SDS011;1291;51.420;6.970;2022-08-25T17:41:33;9.27;;;5.03;;
2562;SDS011;1291;51.420;6.970;2022-08-25T17:43:59;17.45;;;5.45;;
2562;SDS011;1291;51.420;6.970;2022-08-25T17:46:25;21.65;;;5.82;;